createdAt,value
2022-08-17T00:00:34.492Z,14.98
2022-08-17T00:03:14.463Z,15.45
2022-08-17T00:05:46.342Z,16.25
2022-08-17T00:08:17.555Z,18.42
2022-08-17T00:10:46.139Z,13.45
2022-08-17T00:13:29.549Z,13.32
2022-08-17T00:16:03.920Z,16.10
2022-08-17T00:18:53.788Z,15.15
2022-08-17T00:21:25.118Z,16.25
2022-08-17T00:23:54.208Z,14.50
2022-08-17T00:26:37.516Z,12.95
2022-08-17T00:29:19.570Z,14.27
2022-08-17T00:31:49.232Z,14.70
2022-08-17T00:34:19.115Z,13.10
2022-08-17T00:36:46.717Z,15.35
2022-08-17T00:39:14.999Z,13.75
2022-08-17T00:41:42.889Z,12.45
2022-08-17T00:44:12.121Z,15.05
2022-08-17T00:46:42.485Z,12.50
2022-08-17T00:49:12.756Z,12.90
2022-08-17T00:51:55.638Z,13.52
2022-08-17T00:54:31.091Z,12.55
2022-08-17T00:57:09.086Z,14.55
2022-08-17T01:00:04.151Z,13.60
2022-08-17T01:02:42.158Z,14.07
2022-08-17T01:05:15.814Z,13.90
2022-08-17T01:07:44.404Z,14.52
2022-08-17T01:10:57.405Z,13.25
2022-08-17T01:13:04.365Z,14.00
2022-08-17T01:15:36.466Z,14.88
2022-08-17T01:18:07.901Z,13.70
2022-08-17T01:20:48.559Z,15.07
2022-08-17T01:23:20.736Z,12.90
2022-08-17T01:25:56.538Z,12.90
2022-08-17T01:28:36.437Z,13.65
2022-08-17T01:31:18.681Z,12.35
2022-08-17T01:33:47.541Z,19.20
2022-08-17T01:36:15.958Z,12.98
2022-08-17T01:38:45.244Z,17.25
2022-08-17T01:41:16.418Z,15.05
2022-08-17T01:43:51.068Z,14.52
2022-08-17T01:46:23.721Z,13.23
2022-08-17T01:48:51.700Z,15.52
2022-08-17T01:51:21.286Z,13.65
2022-08-17T01:53:54.025Z,12.60
2022-08-17T01:56:24.950Z,13.85
2022-08-17T01:58:53.766Z,14.40
2022-08-17T02:01:22.982Z,13.98
2022-08-17T02:03:56.097Z,14.65
2022-08-17T02:06:31.469Z,13.75
2022-08-17T02:09:16.724Z,16.58
2022-08-17T02:11:46.156Z,15.00
2022-08-17T02:14:14.464Z,14.43
2022-08-17T02:16:42.854Z,17.00
2022-08-17T02:19:14.007Z,15.60
2022-08-17T02:21:44.401Z,17.10
2022-08-17T02:25:01.150Z,14.45
2022-08-17T02:27:23.482Z,15.48
2022-08-17T02:29:53.440Z,17.40
2022-08-17T02:32:28.056Z,15.63
2022-08-17T02:34:58.396Z,15.65
2022-08-17T02:37:29.959Z,14.55
2022-08-17T02:39:58.777Z,15.00
2022-08-17T02:42:36.802Z,15.10
2022-08-17T02:45:06.429Z,15.60
2022-08-17T02:47:34.870Z,14.85
2022-08-17T02:50:05.570Z,14.77
2022-08-17T02:53:01.390Z,15.20
2022-08-17T02:55:30.927Z,16.38
2022-08-17T02:57:59.575Z,14.43
2022-08-17T03:00:35.591Z,20.95
2022-08-17T03:03:11.079Z,16.30
2022-08-17T03:05:39.873Z,15.75
2022-08-17T03:08:11.768Z,15.98
2022-08-17T03:10:40.511Z,14.52
2022-08-17T03:13:08.897Z,16.05
2022-08-17T03:15:40.627Z,17.60
2022-08-17T03:18:09.217Z,16.88
2022-08-17T03:20:47.699Z,17.05
2022-08-17T03:23:14.730Z,18.70
2022-08-17T03:25:44.156Z,16.27
2022-08-17T03:28:12.717Z,17.80
2022-08-17T03:30:41.079Z,23.38
2022-08-17T03:33:10.925Z,17.90
2022-08-17T03:35:40.591Z,17.33
2022-08-17T03:38:10.818Z,17.73
2022-08-17T03:40:56.909Z,18.10
2022-08-17T03:43:29.917Z,18.23
2022-08-17T03:46:28.042Z,18.83
2022-08-17T03:49:24.801Z,19.25
2022-08-17T03:52:13.802Z,19.42
2022-08-17T03:55:00.329Z,20.98
2022-08-17T03:57:29.350Z,18.85
2022-08-17T03:59:58.071Z,23.15
2022-08-17T04:02:32.665Z,21.20
2022-08-17T04:05:01.823Z,18.95
2022-08-17T04:07:31.370Z,20.13
2022-08-17T04:10:00.896Z,20.17
2022-08-17T04:12:31.644Z,20.10
2022-08-17T04:14:59.076Z,19.63
2022-08-17T04:17:28.893Z,18.52
2022-08-17T04:19:57.389Z,20.10
2022-08-17T04:22:31.045Z,18.98
2022-08-17T04:25:13.658Z,20.50
2022-08-17T04:27:42.566Z,20.90
2022-08-17T04:30:10.918Z,21.15
2022-08-17T04:33:05.011Z,20.02
2022-08-17T04:35:45.683Z,20.17
2022-08-17T04:38:25.119Z,19.33
2022-08-17T04:41:12.010Z,20.77
2022-08-17T04:43:42.997Z,21.30
2022-08-17T04:46:14.648Z,20.65
2022-08-17T04:48:47.824Z,20.92
2022-08-17T04:51:20.611Z,21.17
2022-08-17T04:53:53.970Z,19.20
2022-08-17T04:56:25.909Z,19.73
2022-08-17T04:58:57.768Z,22.85
2022-08-17T05:01:28.903Z,24.33
2022-08-17T05:03:59.652Z,21.05
2022-08-17T05:06:30.646Z,20.55
2022-08-17T05:08:58.752Z,21.58
2022-08-17T05:11:29.506Z,18.75
2022-08-17T05:13:59.219Z,21.95
2022-08-17T05:16:28.724Z,21.55
2022-08-17T05:18:57.047Z,19.45
2022-08-17T05:21:27.030Z,20.23
2022-08-17T05:23:58.510Z,20.95
2022-08-17T05:26:29.304Z,22.48
2022-08-17T05:29:02.423Z,22.25
2022-08-17T05:31:30.917Z,21.90
2022-08-17T05:33:58.546Z,20.63
2022-08-17T05:36:42.230Z,20.88
2022-08-17T05:39:16.522Z,22.42
2022-08-17T05:41:48.338Z,20.90
2022-08-17T05:44:16.882Z,19.98
2022-08-17T05:46:50.200Z,18.35
2022-08-17T05:49:28.371Z,20.17
2022-08-17T05:52:23.581Z,20.33
2022-08-17T05:55:25.833Z,19.50
2022-08-17T05:58:14.022Z,23.85
2022-08-17T06:00:42.422Z,18.98
2022-08-17T06:03:20.035Z,19.30
2022-08-17T06:05:51.574Z,19.33
2022-08-17T06:08:48.238Z,17.30
2022-08-17T06:11:37.302Z,17.40
2022-08-17T06:14:13.627Z,18.52
2022-08-17T06:16:46.331Z,16.85
2022-08-17T06:19:34.062Z,17.63
2022-08-17T06:22:05.877Z,18.85
2022-08-17T06:25:33.355Z,20.60
2022-08-17T06:28:10.061Z,18.10
2022-08-17T06:30:59.174Z,17.13
2022-08-17T06:33:36.056Z,18.17
2022-08-17T06:36:28.760Z,18.48
2022-08-17T06:39:21.222Z,16.13
2022-08-17T06:43:02.358Z,17.20
2022-08-17T06:45:15.368Z,16.67
2022-08-17T06:47:55.883Z,17.05
2022-08-17T06:50:49.661Z,17.52
2022-08-17T06:53:25.142Z,17.80
2022-08-17T06:56:11.704Z,16.90
2022-08-17T06:58:43.356Z,15.15
2022-08-17T07:01:20.975Z,15.70
2022-08-17T07:03:54.367Z,16.05
2022-08-17T07:06:27.730Z,16.73
2022-08-17T07:09:03.960Z,17.83
2022-08-17T07:11:55.117Z,16.30
2022-08-17T07:14:23.656Z,17.02
2022-08-17T07:16:56.644Z,15.32
2022-08-17T07:19:31.822Z,16.50
2022-08-17T07:22:08.639Z,15.18
2022-08-17T07:24:58.455Z,15.90
2022-08-17T07:27:31.300Z,16.45
2022-08-17T07:30:30.485Z,14.40
2022-08-17T07:33:13.415Z,15.68
2022-08-17T07:35:44.645Z,15.15
2022-08-17T07:38:25.310Z,15.85
2022-08-17T07:40:57.597Z,15.07
2022-08-17T07:43:26.121Z,15.45
2022-08-17T07:46:29.767Z,16.20
2022-08-17T07:49:36.366Z,18.13
2022-08-17T07:52:51.274Z,15.27
2022-08-17T07:55:35.411Z,14.65
2022-08-17T07:58:03.604Z,14.45
2022-08-17T08:00:33.652Z,16.73
2022-08-17T08:03:16.909Z,15.88
2022-08-17T08:05:54.685Z,14.68
2022-08-17T08:08:34.611Z,14.23
2022-08-17T08:11:12.921Z,15.18
2022-08-17T08:13:43.819Z,15.07
2022-08-17T08:16:17.474Z,14.63
2022-08-17T08:18:55.606Z,14.60
2022-08-17T08:22:12.919Z,13.77
2022-08-17T08:25:02.930Z,14.45
2022-08-17T08:27:56.113Z,13.38
2022-08-17T08:30:25.300Z,12.75
2022-08-17T08:33:08.492Z,13.27
2022-08-17T08:35:49.091Z,13.68
2022-08-17T08:38:17.340Z,12.70
2022-08-17T08:40:53.449Z,13.02
2022-08-17T08:43:27.965Z,12.18
2022-08-17T08:46:37.795Z,11.77
2022-08-17T08:50:01.446Z,15.63
2022-08-17T08:52:34.101Z,14.45
2022-08-17T08:55:15.211Z,13.23
2022-08-17T08:57:50.923Z,13.27
2022-08-17T09:00:25.506Z,13.77
2022-08-17T09:03:12.118Z,13.23
2022-08-17T09:05:58.484Z,12.30
2022-08-17T09:08:28.151Z,12.43
2022-08-17T09:12:01.804Z,12.77
2022-08-17T09:14:55.690Z,12.07
2022-08-17T09:18:28.469Z,12.52
2022-08-17T09:21:23.028Z,13.30
2022-08-17T09:24:06.241Z,12.82
2022-08-17T09:27:09.975Z,12.15
2022-08-17T09:30:00.719Z,12.15
2022-08-17T09:32:39.632Z,13.02
2022-08-17T09:35:36.570Z,13.18
2022-08-17T09:38:21.032Z,12.23
2022-08-17T09:41:25.121Z,12.88
2022-08-17T09:44:02.812Z,13.90
2022-08-17T09:46:40.452Z,12.15
2022-08-17T09:49:31.590Z,11.75
2022-08-17T09:52:07.460Z,13.13
2022-08-17T09:54:40.341Z,12.75
2022-08-17T09:57:31.371Z,12.82
2022-08-17T09:59:59.741Z,12.30
2022-08-17T10:02:34.717Z,12.82
2022-08-17T10:05:21.846Z,12.18
2022-08-17T10:08:08.617Z,10.90
2022-08-17T10:11:05.744Z,13.43
2022-08-17T10:14:02.821Z,10.05
2022-08-17T10:17:09.932Z,10.93
2022-08-17T10:20:05.824Z,11.02
2022-08-17T10:23:10.289Z,12.23
2022-08-17T10:26:07.290Z,12.40
2022-08-17T10:28:55.701Z,10.80
2022-08-17T10:31:38.288Z,10.20
2022-08-17T10:34:41.067Z,13.10
2022-08-17T10:37:13.844Z,11.18
2022-08-17T10:39:57.391Z,11.25
2022-08-17T10:42:32.969Z,10.90
2022-08-17T10:45:29.506Z,10.25
2022-08-17T10:48:07.442Z,11.10
2022-08-17T10:50:55.328Z,10.43
2022-08-17T10:53:33.518Z,9.23
2022-08-17T10:56:14.072Z,9.63
2022-08-17T10:58:46.233Z,9.60
2022-08-17T11:01:13.237Z,9.30
2022-08-17T11:03:58.115Z,11.02
2022-08-17T11:06:41.560Z,10.13
2022-08-17T11:09:15.377Z,9.95
2022-08-17T11:12:06.620Z,11.27
2022-08-17T11:15:27.815Z,9.80
2022-08-17T11:18:17.530Z,9.45
2022-08-17T11:20:52.650Z,10.20
2022-08-17T11:23:58.652Z,10.85
2022-08-17T11:26:29.697Z,9.25
2022-08-17T11:29:03.741Z,9.57
2022-08-17T11:31:40.046Z,9.27
2022-08-17T11:34:26.325Z,10.02
2022-08-17T11:36:56.099Z,9.10
2022-08-17T11:39:49.629Z,9.98
2022-08-17T11:42:39.868Z,9.73
2022-08-17T11:45:32.063Z,9.60
2022-08-17T11:48:42.349Z,9.63
2022-08-17T11:51:33.762Z,8.75
2022-08-17T11:54:31.072Z,8.65
2022-08-17T11:56:51.812Z,9.43
2022-08-17T11:59:33.930Z,8.73
2022-08-17T12:02:04.814Z,8.52
2022-08-17T12:04:34.408Z,8.98
2022-08-17T12:07:13.390Z,8.63
2022-08-17T12:09:44.137Z,8.25
2022-08-17T12:12:19.261Z,11.40
2022-08-17T12:15:11.505Z,8.82
2022-08-17T12:17:42.954Z,8.48
2022-08-17T12:20:20.131Z,7.22
2022-08-17T12:23:06.855Z,7.32
2022-08-17T12:25:57.714Z,8.25
2022-08-17T12:28:38.655Z,9.15
2022-08-17T12:31:34.613Z,7.50
2022-08-17T12:34:04.673Z,7.95
2022-08-17T12:36:33.652Z,7.60
2022-08-17T12:39:13.736Z,7.00
2022-08-17T12:41:47.221Z,7.22
2022-08-17T12:44:23.172Z,8.55
2022-08-17T12:46:58.794Z,6.70
2022-08-17T12:49:40.934Z,6.80
2022-08-17T12:52:20.221Z,6.10
2022-08-17T12:55:07.051Z,6.13
2022-08-17T12:57:46.626Z,6.78
2022-08-17T13:00:17.541Z,6.97
2022-08-17T13:03:13.005Z,7.05
2022-08-17T13:05:43.566Z,6.88
2022-08-17T13:08:19.847Z,6.80
2022-08-17T13:11:18.294Z,6.90
2022-08-17T13:13:51.903Z,8.57
2022-08-17T13:16:24.817Z,6.97
2022-08-17T13:19:03.636Z,6.57
2022-08-17T13:21:33.249Z,6.85
2022-08-17T13:24:07.753Z,8.07
2022-08-17T13:26:50.607Z,6.93
2022-08-17T13:29:28.664Z,7.22
2022-08-17T13:32:26.833Z,7.95
2022-08-17T13:35:11.931Z,6.47
2022-08-17T13:37:42.619Z,6.93
2022-08-17T13:40:10.663Z,6.60
2022-08-17T13:42:53.829Z,5.90
2022-08-17T13:45:39.516Z,6.20
2022-08-17T13:48:13.635Z,6.82
2022-08-17T13:50:56.094Z,6.63
2022-08-17T13:53:33.064Z,6.80
2022-08-17T13:56:37.082Z,7.82
2022-08-17T13:59:53.204Z,6.78
2022-08-17T14:02:20.608Z,6.60
2022-08-17T14:04:49.557Z,6.93
2022-08-17T14:07:16.725Z,7.82
2022-08-17T14:09:54.030Z,6.78
2022-08-17T14:12:25.558Z,8.38
2022-08-17T14:14:56.421Z,7.18
2022-08-17T14:17:26.417Z,8.30
2022-08-17T14:19:55.743Z,7.43
2022-08-17T14:22:33.575Z,7.07
2022-08-17T14:25:03.066Z,7.53
2022-08-17T14:27:34.055Z,7.18
2022-08-17T14:30:16.058Z,7.18
2022-08-17T14:32:45.108Z,7.75
2022-08-17T14:35:14.649Z,8.05
2022-08-17T14:37:42.740Z,7.35
2022-08-17T14:40:12.957Z,7.57
2022-08-17T14:42:43.323Z,6.68
2022-08-17T14:45:29.850Z,7.55
2022-08-17T14:48:07.709Z,7.30
2022-08-17T14:50:40.920Z,8.05
2022-08-17T14:53:13.556Z,7.05
2022-08-17T14:55:45.729Z,6.20
2022-08-17T14:58:15.546Z,7.05
2022-08-17T15:00:43.662Z,7.38
2022-08-17T15:03:12.380Z,7.45
2022-08-17T15:05:41.319Z,6.68
2022-08-17T15:08:08.957Z,8.52
2022-08-17T15:10:39.379Z,6.47
2022-08-17T15:13:20.038Z,6.80
2022-08-17T15:15:48.981Z,6.15
2022-08-17T15:18:17.689Z,9.02
2022-08-17T15:20:49.131Z,6.57
2022-08-17T15:23:20.933Z,6.82
2022-08-17T15:25:50.099Z,7.35
2022-08-17T15:28:20.522Z,6.88
2022-08-17T15:30:50.583Z,7.63
2022-08-17T15:33:22.266Z,6.95
2022-08-17T15:35:53.378Z,7.68
2022-08-17T15:38:22.693Z,7.57
2022-08-17T15:40:51.599Z,7.00
2022-08-17T15:43:27.634Z,8.15
2022-08-17T15:46:00.519Z,8.02
2022-08-17T15:48:41.214Z,7.68
2022-08-17T15:51:27.065Z,7.53
2022-08-17T15:54:04.524Z,7.78
2022-08-17T15:56:46.290Z,8.40
2022-08-17T15:59:15.589Z,8.63
2022-08-17T16:03:13.702Z,8.07
2022-08-17T16:04:32.388Z,9.20
2022-08-17T16:07:00.778Z,9.27
2022-08-17T16:09:28.920Z,8.13
2022-08-17T16:11:57.137Z,8.52
2022-08-17T16:14:34.897Z,8.85
2022-08-17T16:17:03.561Z,8.52
2022-08-17T16:19:33.148Z,8.45
2022-08-17T16:22:00.876Z,9.50
2022-08-17T16:24:29.856Z,8.07
2022-08-17T16:27:00.098Z,8.57
2022-08-17T16:29:29.117Z,8.50
2022-08-17T16:31:57.568Z,9.35
2022-08-17T16:34:25.809Z,9.85
2022-08-17T16:36:56.519Z,8.77
2022-08-17T16:39:27.190Z,9.88
2022-08-17T16:41:57.495Z,10.40
2022-08-17T16:44:30.409Z,10.00
2022-08-17T16:46:58.491Z,9.85
2022-08-17T16:49:37.020Z,9.30
2022-08-17T16:52:10.663Z,9.98
2022-08-17T16:54:43.629Z,10.50
2022-08-17T16:57:13.548Z,10.00
2022-08-17T16:59:43.720Z,11.05
2022-08-17T17:02:24.616Z,10.43
2022-08-17T17:05:22.205Z,10.02
2022-08-17T17:08:26.611Z,11.75
2022-08-17T17:11:03.784Z,11.68
2022-08-17T17:13:47.761Z,11.70
2022-08-17T17:16:46.775Z,12.60
2022-08-17T17:19:37.914Z,10.70
2022-08-17T17:22:26.921Z,11.82
2022-08-17T17:25:34.399Z,12.05
2022-08-17T17:28:06.711Z,13.65
2022-08-17T17:30:43.298Z,12.77
2022-08-17T17:33:19.693Z,12.23
2022-08-17T17:35:56.854Z,11.85
2022-08-17T17:38:32.960Z,13.18
2022-08-17T17:41:08.581Z,13.38
2022-08-17T17:43:40.234Z,12.90
2022-08-17T17:46:27.675Z,13.13
2022-08-17T17:48:57.184Z,12.13
2022-08-17T17:52:06.700Z,12.25
2022-08-17T17:54:52.969Z,13.52
2022-08-17T17:57:27.685Z,12.68
2022-08-17T18:00:02.042Z,13.13
2022-08-17T18:02:52.711Z,12.55
2022-08-17T18:05:34.106Z,13.40
2022-08-17T18:08:34.716Z,12.75
2022-08-17T18:11:24.594Z,13.77
2022-08-17T18:14:25.927Z,13.73
2022-08-17T18:16:59.355Z,14.00
2022-08-17T18:19:29.394Z,13.90
2022-08-17T18:22:14.981Z,13.93
2022-08-17T18:24:44.809Z,14.15
2022-08-17T18:27:25.743Z,15.32
2022-08-17T18:29:57.009Z,15.60
2022-08-17T18:32:38.200Z,13.88
2022-08-17T18:35:10.269Z,14.13
2022-08-17T18:37:52.661Z,16.42
2022-08-17T18:40:32.929Z,15.65
2022-08-17T18:43:13.921Z,15.35
2022-08-17T18:45:48.600Z,13.85
2022-08-17T18:48:27.220Z,16.27
2022-08-17T18:51:00.207Z,16.02
2022-08-17T18:53:39.635Z,14.38
2022-08-17T18:56:30.692Z,15.13
2022-08-17T18:59:24.250Z,15.00
2022-08-17T19:02:20.732Z,14.93
2022-08-17T19:05:06.648Z,14.02
2022-08-17T19:07:46.350Z,14.75
2022-08-17T19:10:16.690Z,13.35
2022-08-17T19:13:12.585Z,15.50
2022-08-17T19:16:14.807Z,15.77
2022-08-17T19:18:49.165Z,14.40
2022-08-17T19:21:20.646Z,13.90
2022-08-17T19:24:13.466Z,15.38
2022-08-17T19:26:55.119Z,15.68
2022-08-17T19:29:50.299Z,14.88
2022-08-17T19:32:25.477Z,14.63
2022-08-17T19:34:53.090Z,14.55
2022-08-17T19:37:50.343Z,15.77
2022-08-17T19:41:00.613Z,14.50
2022-08-17T19:43:57.589Z,16.50
2022-08-17T19:46:50.480Z,14.88
2022-08-17T19:49:33.461Z,14.77
2022-08-17T19:52:49.822Z,16.35
2022-08-17T19:55:47.669Z,13.30
2022-08-17T19:58:52.454Z,13.93
2022-08-17T20:01:38.214Z,14.40
2022-08-17T20:04:15.422Z,19.33
2022-08-17T20:06:49.384Z,16.20
2022-08-17T20:09:34.109Z,17.95
2022-08-17T20:12:26.239Z,16.42
2022-08-17T20:15:18.164Z,17.60
2022-08-17T20:17:50.163Z,15.63
2022-08-17T20:20:35.225Z,16.95
2022-08-17T20:23:31.257Z,18.00
2022-08-17T20:26:06.237Z,16.90
2022-08-17T20:28:38.884Z,17.33
2022-08-17T20:31:46.153Z,16.95
2022-08-17T20:34:36.901Z,19.65
2022-08-17T20:37:29.425Z,16.38
2022-08-17T20:39:58.204Z,15.40
2022-08-17T20:42:27.125Z,15.80
2022-08-17T20:45:02.934Z,13.88
2022-08-17T20:48:15.253Z,15.27
2022-08-17T20:50:56.029Z,15.07
2022-08-17T20:53:47.566Z,13.85
2022-08-17T20:56:44.435Z,14.07
2022-08-17T20:59:25.891Z,14.80
2022-08-17T21:02:12.419Z,15.32
2022-08-17T21:04:56.327Z,17.17
2022-08-17T21:07:43.450Z,14.85
2022-08-17T21:10:17.783Z,15.20
2022-08-17T21:12:48.252Z,14.70
2022-08-17T21:15:48.615Z,17.77
2022-08-17T21:18:38.828Z,14.85
2022-08-17T21:21:34.936Z,14.55
2022-08-17T21:24:20.767Z,13.98
2022-08-17T21:27:11.533Z,15.20
2022-08-17T21:30:09.965Z,16.10
2022-08-17T21:32:40.515Z,15.20
2022-08-17T21:35:28.495Z,15.60
2022-08-17T21:38:03.631Z,15.52
2022-08-17T21:40:32.822Z,15.10
2022-08-17T21:43:23.546Z,14.02
2022-08-17T21:46:02.215Z,13.80
2022-08-17T21:48:39.950Z,14.60
2022-08-17T21:51:21.924Z,13.55
2022-08-17T21:53:55.874Z,14.38
2022-08-17T21:56:25.862Z,13.85
2022-08-17T21:59:06.174Z,14.18
2022-08-17T22:01:40.296Z,16.52
2022-08-17T22:04:11.345Z,15.07
2022-08-17T22:06:56.673Z,15.07
2022-08-17T22:09:50.561Z,15.18
2022-08-17T22:12:22.251Z,16.63
2022-08-17T22:15:06.144Z,17.50
2022-08-17T22:17:39.913Z,16.20
2022-08-17T22:20:15.881Z,15.52
2022-08-17T22:23:08.739Z,16.88
2022-08-17T22:25:57.385Z,14.55
2022-08-17T22:28:41.026Z,15.57
2022-08-17T22:31:14.635Z,14.32
2022-08-17T22:33:45.942Z,14.05
2022-08-17T22:36:26.565Z,15.35
2022-08-17T22:39:00.297Z,15.73
2022-08-17T22:41:34.658Z,16.60
2022-08-17T22:44:34.004Z,16.05
2022-08-17T22:47:18.847Z,14.55
2022-08-17T22:49:57.570Z,14.80
2022-08-17T22:52:56.869Z,16.23
2022-08-17T22:55:44.391Z,19.45
2022-08-17T22:58:35.776Z,17.38
2022-08-17T23:01:26.034Z,15.80
2022-08-17T23:04:05.822Z,14.82
2022-08-17T23:06:37.842Z,16.10
2022-08-17T23:09:07.248Z,16.02
2022-08-17T23:11:49.255Z,15.63
2022-08-17T23:14:19.995Z,16.48
2022-08-17T23:16:50.299Z,14.95
2022-08-17T23:19:20.843Z,15.77
2022-08-17T23:21:50.457Z,15.45
2022-08-17T23:24:27.786Z,15.45
2022-08-17T23:26:57.289Z,15.95
2022-08-17T23:29:26.141Z,15.13
2022-08-17T23:31:53.786Z,16.20
2022-08-17T23:34:23.161Z,15.90
2022-08-17T23:36:53.144Z,14.80
2022-08-17T23:39:27.565Z,15.48
2022-08-17T23:41:58.414Z,14.75
2022-08-17T23:44:26.442Z,14.48
2022-08-17T23:46:54.722Z,14.75
2022-08-17T23:49:23.460Z,15.55
2022-08-17T23:51:54.709Z,15.30
2022-08-17T23:54:28.144Z,16.80
2022-08-17T23:56:56.184Z,16.50
2022-08-17T23:59:27.465Z,14.68
